createdAt,value
2022-08-03T00:01:47.709Z,3.00
2022-08-03T00:04:17.083Z,2.08
2022-08-03T00:06:45.233Z,2.22
2022-08-03T00:09:13.370Z,2.65
2022-08-03T00:11:41.282Z,3.22
2022-08-03T00:14:09.805Z,3.58
2022-08-03T00:16:37.826Z,2.35
2022-08-03T00:19:05.995Z,5.00
2022-08-03T00:21:35.495Z,3.00
2022-08-03T00:24:03.683Z,2.90
2022-08-03T00:26:31.829Z,2.17
2022-08-03T00:29:00.085Z,2.08
2022-08-03T00:31:40.061Z,3.88
2022-08-03T00:34:16.134Z,1.45
2022-08-03T00:36:45.541Z,3.03
2022-08-03T00:39:13.381Z,1.95
2022-08-03T00:41:41.373Z,3.67
2022-08-03T00:44:09.377Z,1.75
2022-08-03T00:46:37.281Z,4.22
2022-08-03T00:49:05.375Z,1.42
2022-08-03T00:51:35.019Z,2.50
2022-08-03T00:54:04.446Z,2.53
2022-08-03T00:56:32.436Z,3.70
2022-08-03T00:59:00.772Z,2.97
2022-08-03T01:01:30.648Z,1.80
2022-08-03T01:04:01.472Z,2.60
2022-08-03T01:06:37.247Z,1.90
2022-08-03T01:09:12.516Z,3.05
2022-08-03T01:12:00.076Z,1.75
2022-08-03T01:14:35.695Z,2.35
2022-08-03T01:17:12.248Z,2.40
2022-08-03T01:19:54.234Z,2.08
2022-08-03T01:22:46.248Z,1.33
2022-08-03T01:25:29.774Z,3.97
2022-08-03T01:28:11.371Z,1.92
2022-08-03T01:30:44.978Z,1.15
2022-08-03T01:33:18.882Z,2.60
2022-08-03T01:35:51.769Z,5.45
2022-08-03T01:38:25.749Z,2.92
2022-08-03T01:40:55.413Z,2.28
2022-08-03T01:43:55.454Z,2.33
2022-08-03T01:46:21.020Z,4.50
2022-08-03T01:48:50.537Z,2.38
2022-08-03T01:51:21.239Z,2.03
2022-08-03T01:53:51.459Z,4.45
2022-08-03T01:56:23.482Z,3.63
2022-08-03T01:58:54.042Z,3.05
2022-08-03T02:01:25.288Z,1.77
2022-08-03T02:04:15.873Z,3.28
2022-08-03T02:07:00.646Z,1.92
2022-08-03T02:09:32.861Z,3.75
2022-08-03T02:12:02.140Z,3.10
2022-08-03T02:14:31.568Z,3.13
2022-08-03T02:17:02.200Z,4.03
2022-08-03T02:19:35.587Z,5.88
2022-08-03T02:22:06.279Z,2.53
2022-08-03T02:24:36.996Z,3.13
2022-08-03T02:27:09.502Z,2.47
2022-08-03T02:29:43.208Z,2.35
2022-08-03T02:32:18.683Z,2.55
2022-08-03T02:34:50.169Z,2.78
2022-08-03T02:37:20.473Z,2.13
2022-08-03T02:39:52.100Z,2.25
2022-08-03T02:42:24.433Z,1.33
2022-08-03T02:44:56.516Z,1.77
2022-08-03T02:47:28.974Z,2.80
2022-08-03T02:50:18.355Z,2.90
2022-08-03T02:52:48.581Z,1.35
2022-08-03T02:55:20.835Z,3.33
2022-08-03T02:57:50.648Z,1.27
2022-08-03T03:00:19.414Z,1.38
2022-08-03T03:02:59.535Z,1.98
2022-08-03T03:05:54.317Z,1.90
2022-08-03T03:08:25.073Z,2.05
2022-08-03T03:10:57.607Z,5.50
2022-08-03T03:13:26.655Z,2.03
2022-08-03T03:15:57.726Z,1.98
2022-08-03T03:18:29.821Z,4.18
2022-08-03T03:20:59.213Z,3.10
2022-08-03T03:23:28.957Z,2.03
2022-08-03T03:25:59.259Z,3.20
2022-08-03T03:28:27.674Z,1.67
2022-08-03T03:30:55.813Z,2.30
2022-08-03T03:33:24.645Z,2.20
2022-08-03T03:35:54.697Z,1.77
2022-08-03T03:38:22.596Z,1.45
2022-08-03T03:40:50.907Z,2.50
2022-08-03T03:43:19.654Z,2.90
2022-08-03T03:45:48.813Z,2.70
2022-08-03T03:48:17.166Z,1.58
2022-08-03T03:50:45.556Z,4.00
2022-08-03T03:53:15.523Z,1.52
2022-08-03T03:55:59.389Z,2.40
2022-08-03T03:58:31.697Z,1.48
2022-08-03T04:00:59.898Z,1.15
2022-08-03T04:03:27.929Z,4.10
2022-08-03T04:06:13.397Z,5.55
2022-08-03T04:09:15.097Z,2.97
2022-08-03T04:11:52.886Z,3.13
2022-08-03T04:14:23.975Z,2.97
2022-08-03T04:16:56.117Z,3.17
2022-08-03T04:19:28.942Z,2.22
2022-08-03T04:22:00.618Z,2.05
2022-08-03T04:24:41.390Z,2.28
2022-08-03T04:27:12.893Z,4.78
2022-08-03T04:29:48.590Z,2.70
2022-08-03T04:32:18.787Z,1.80
2022-08-03T04:34:47.734Z,2.05
2022-08-03T04:37:25.767Z,2.70
2022-08-03T04:39:58.200Z,3.13
2022-08-03T04:42:27.708Z,2.83
2022-08-03T04:45:01.064Z,2.28
2022-08-03T04:47:31.195Z,1.75
2022-08-03T04:49:59.306Z,2.42
2022-08-03T04:52:27.321Z,3.20
2022-08-03T04:54:56.753Z,2.30
2022-08-03T04:57:25.055Z,3.25
2022-08-03T05:00:02.759Z,1.80
2022-08-03T05:02:32.027Z,4.30
2022-08-03T05:05:00.117Z,1.85
2022-08-03T05:07:35.483Z,1.60
2022-08-03T05:10:14.689Z,3.05
2022-08-03T05:12:43.566Z,3.08
2022-08-03T05:15:12.113Z,2.35
2022-08-03T05:17:40.193Z,2.47
2022-08-03T05:20:09.153Z,3.38
2022-08-03T05:22:37.245Z,3.08
2022-08-03T05:25:07.195Z,2.53
2022-08-03T05:27:35.293Z,1.50
2022-08-03T05:30:31.391Z,2.40
2022-08-03T05:32:51.560Z,3.80
2022-08-03T05:35:55.699Z,2.30
2022-08-03T05:38:07.813Z,3.15
2022-08-03T05:40:38.872Z,2.40
2022-08-03T05:43:14.863Z,2.90
2022-08-03T05:45:43.154Z,2.80
2022-08-03T05:48:11.003Z,1.48
2022-08-03T05:50:42.788Z,3.55
2022-08-03T05:53:11.238Z,3.65
2022-08-03T05:55:40.505Z,2.03
2022-08-03T05:58:08.478Z,3.83
2022-08-03T06:00:39.665Z,2.60
2022-08-03T06:03:07.589Z,3.25
2022-08-03T06:05:36.664Z,3.13
2022-08-03T06:08:11.867Z,3.55
2022-08-03T06:10:44.790Z,1.40
2022-08-03T06:13:12.990Z,2.78
2022-08-03T06:15:40.877Z,1.52
2022-08-03T06:18:08.995Z,1.58
2022-08-03T06:20:37.128Z,2.67
2022-08-03T06:23:05.468Z,2.67
2022-08-03T06:25:35.426Z,3.22
2022-08-03T06:28:05.446Z,4.07
2022-08-03T06:30:33.454Z,2.88
2022-08-03T06:33:01.628Z,1.77
2022-08-03T06:35:29.757Z,2.83
2022-08-03T06:37:57.593Z,1.60
2022-08-03T06:40:29.742Z,1.98
2022-08-03T06:42:57.925Z,1.88
2022-08-03T06:45:31.841Z,2.45
2022-08-03T06:48:04.573Z,1.80
2022-08-03T06:50:33.041Z,2.50
2022-08-03T06:53:01.765Z,1.20
2022-08-03T06:55:30.050Z,5.38
2022-08-03T06:57:59.746Z,2.80
2022-08-03T07:00:33.058Z,1.83
2022-08-03T07:03:00.888Z,2.60
2022-08-03T07:05:28.942Z,3.03
2022-08-03T07:07:59.318Z,1.73
2022-08-03T07:10:27.753Z,1.65
2022-08-03T07:12:56.929Z,2.33
2022-08-03T07:15:54.129Z,2.22
2022-08-03T07:18:15.170Z,1.88
2022-08-03T07:20:43.472Z,2.53
2022-08-03T07:23:11.580Z,2.75
2022-08-03T07:25:47.457Z,1.65
2022-08-03T07:28:15.597Z,2.13
2022-08-03T07:30:43.503Z,1.77
2022-08-03T07:33:11.728Z,1.73
2022-08-03T07:35:41.053Z,2.08
2022-08-03T07:38:08.969Z,4.38
2022-08-03T07:40:37.026Z,2.75
2022-08-03T07:43:05.184Z,1.95
2022-08-03T07:45:33.541Z,2.28
2022-08-03T07:48:01.974Z,4.28
2022-08-03T07:50:30.549Z,2.53
2022-08-03T07:52:59.883Z,2.20
2022-08-03T07:55:28.867Z,2.90
2022-08-03T07:58:04.849Z,3.10
2022-08-03T08:00:33.471Z,2.72
2022-08-03T08:03:01.416Z,2.08
2022-08-03T08:05:29.615Z,1.58
2022-08-03T08:07:59.196Z,2.63
2022-08-03T08:10:27.088Z,2.53
2022-08-03T08:12:55.401Z,3.40
2022-08-03T08:15:24.010Z,1.40
2022-08-03T08:17:53.615Z,1.63
2022-08-03T08:20:28.348Z,3.65
2022-08-03T08:23:02.053Z,1.05
2022-08-03T08:25:32.471Z,2.88
2022-08-03T08:28:30.619Z,2.08
2022-08-03T08:30:51.140Z,2.42
2022-08-03T08:33:23.545Z,2.22
2022-08-03T08:35:54.192Z,3.58
2022-08-03T08:38:24.190Z,2.15
2022-08-03T08:40:52.299Z,2.40
2022-08-03T08:43:20.170Z,2.45
2022-08-03T08:45:50.187Z,2.85
2022-08-03T08:48:23.430Z,1.52
2022-08-03T08:50:55.039Z,1.52
2022-08-03T08:53:27.692Z,1.45
2022-08-03T08:55:59.059Z,1.85
2022-08-03T08:58:29.466Z,1.42
2022-08-03T09:00:58.078Z,1.10
2022-08-03T09:03:29.399Z,2.05
2022-08-03T09:06:00.508Z,1.35
2022-08-03T09:08:30.236Z,2.08
2022-08-03T09:10:58.193Z,3.67
2022-08-03T09:13:27.052Z,2.60
2022-08-03T09:16:14.021Z,1.15
2022-08-03T09:18:42.986Z,1.27
2022-08-03T09:21:31.288Z,2.65
2022-08-03T09:24:05.384Z,1.75
2022-08-03T09:26:35.667Z,2.30
2022-08-03T09:29:11.201Z,1.63
2022-08-03T09:31:46.043Z,1.63
2022-08-03T09:34:15.747Z,1.60
2022-08-03T09:36:46.009Z,1.10
2022-08-03T09:39:17.136Z,2.70
2022-08-03T09:41:46.372Z,0.50
2022-08-03T09:44:25.315Z,1.63
2022-08-03T09:46:57.109Z,2.90
2022-08-03T09:49:25.945Z,3.17
2022-08-03T09:52:32.451Z,1.17
2022-08-03T09:54:44.680Z,2.72
2022-08-03T09:57:23.799Z,1.73
2022-08-03T09:59:54.980Z,1.98
2022-08-03T10:02:31.149Z,3.35
2022-08-03T10:04:59.848Z,1.05
2022-08-03T10:07:28.277Z,1.65
2022-08-03T10:10:31.367Z,3.53
2022-08-03T10:12:48.942Z,2.55
2022-08-03T10:16:21.865Z,1.10
2022-08-03T10:18:05.903Z,1.23
2022-08-03T10:20:37.759Z,0.80
2022-08-03T10:23:07.080Z,2.13
2022-08-03T10:25:40.710Z,3.00
2022-08-03T10:28:12.182Z,1.33
2022-08-03T10:30:42.348Z,2.63
2022-08-03T10:33:49.719Z,1.05
2022-08-03T10:36:06.174Z,2.40
2022-08-03T10:38:39.665Z,1.40
2022-08-03T10:41:09.854Z,1.52
2022-08-03T10:43:49.128Z,2.88
2022-08-03T10:46:20.304Z,1.00
2022-08-03T10:48:50.882Z,1.83
2022-08-03T10:51:18.815Z,0.93
2022-08-03T10:53:55.536Z,1.85
2022-08-03T10:57:13.701Z,0.85
2022-08-03T11:00:00.624Z,1.55
2022-08-03T11:03:02.111Z,0.68
2022-08-03T11:05:31.980Z,1.00
2022-08-03T11:08:19.608Z,2.92
2022-08-03T11:10:47.892Z,2.17
2022-08-03T11:13:20.364Z,1.42
2022-08-03T11:15:51.038Z,1.10
2022-08-03T11:18:19.496Z,1.45
2022-08-03T11:20:49.136Z,1.23
2022-08-03T11:23:18.835Z,1.25
2022-08-03T11:26:14.101Z,3.92
2022-08-03T11:28:44.829Z,2.58
2022-08-03T11:31:57.465Z,2.15
2022-08-03T11:34:25.884Z,2.50
2022-08-03T11:37:30.144Z,2.92
2022-08-03T11:40:02.736Z,1.63
2022-08-03T11:42:48.170Z,1.35
2022-08-03T11:45:19.954Z,3.03
2022-08-03T11:47:51.480Z,1.75
2022-08-03T11:50:21.497Z,1.60
2022-08-03T11:52:50.541Z,1.33
2022-08-03T11:55:22.285Z,1.25
2022-08-03T11:59:02.706Z,1.75
2022-08-03T12:00:40.602Z,2.88
2022-08-03T12:03:11.162Z,2.88
2022-08-03T12:05:51.361Z,1.23
2022-08-03T12:08:30.969Z,2.90
2022-08-03T12:11:01.433Z,3.17
2022-08-03T12:14:44.751Z,4.47
2022-08-03T12:16:28.953Z,2.00
2022-08-03T12:18:58.191Z,1.17
2022-08-03T12:21:26.521Z,2.75
2022-08-03T12:23:59.156Z,2.85
2022-08-03T12:26:27.726Z,1.50
2022-08-03T12:28:55.834Z,2.10
2022-08-03T12:31:23.984Z,3.00
2022-08-03T12:34:02.765Z,1.40
2022-08-03T12:36:32.270Z,1.85
2022-08-03T12:39:02.452Z,1.67
2022-08-03T12:41:32.167Z,2.80
2022-08-03T12:44:00.900Z,1.92
2022-08-03T12:46:33.913Z,1.65
2022-08-03T12:49:07.136Z,2.45
2022-08-03T12:51:37.362Z,1.58
2022-08-03T12:54:06.531Z,1.77
2022-08-03T12:56:34.829Z,2.70
2022-08-03T12:59:03.134Z,2.25
2022-08-03T13:01:38.703Z,3.03
2022-08-03T13:04:33.218Z,1.23
2022-08-03T13:07:03.528Z,1.92
2022-08-03T13:09:41.634Z,3.13
2022-08-03T13:12:12.065Z,3.13
2022-08-03T13:14:40.758Z,2.08
2022-08-03T13:17:09.326Z,1.27
2022-08-03T13:19:39.947Z,2.97
2022-08-03T13:22:15.387Z,3.50
2022-08-03T13:24:51.604Z,2.63
2022-08-03T13:28:11.075Z,1.67
2022-08-03T13:30:10.270Z,1.20
2022-08-03T13:32:38.509Z,2.83
2022-08-03T13:35:09.762Z,5.18
2022-08-03T13:37:38.143Z,4.28
2022-08-03T13:40:08.320Z,2.10
2022-08-03T13:42:39.784Z,2.13
2022-08-03T13:45:09.294Z,2.00
2022-08-03T13:47:37.921Z,1.92
2022-08-03T13:50:08.323Z,2.92
2022-08-03T13:52:37.357Z,2.08
2022-08-03T13:55:07.873Z,1.60
2022-08-03T13:58:03.395Z,1.63
2022-08-03T14:00:28.947Z,4.03
2022-08-03T14:03:05.245Z,1.40
2022-08-03T14:05:38.333Z,1.73
2022-08-03T14:08:07.229Z,2.80
2022-08-03T14:10:37.070Z,1.73
2022-08-03T14:13:05.192Z,3.17
2022-08-03T14:15:37.991Z,4.32
2022-08-03T14:18:07.363Z,2.60
2022-08-03T14:20:47.849Z,2.50
2022-08-03T14:23:18.910Z,2.95
2022-08-03T14:25:52.441Z,2.05
2022-08-03T14:28:22.784Z,2.00
2022-08-03T14:30:51.534Z,2.58
2022-08-03T14:33:19.630Z,2.72
2022-08-03T14:35:49.892Z,4.82
2022-08-03T14:38:18.256Z,2.33
2022-08-03T14:40:46.809Z,4.35
2022-08-03T14:43:14.865Z,4.50
2022-08-03T14:45:43.262Z,4.32
2022-08-03T14:50:32.072Z,2.05
2022-08-03T14:51:01.815Z,1.98
2022-08-03T14:53:30.204Z,5.38
2022-08-03T14:55:58.078Z,4.03
2022-08-03T14:58:26.828Z,4.55
2022-08-03T15:00:56.154Z,4.45
2022-08-03T15:03:25.218Z,2.35
2022-08-03T15:05:54.185Z,2.95
2022-08-03T15:08:24.982Z,6.45
2022-08-03T15:10:53.135Z,3.42
2022-08-03T15:13:21.634Z,3.20
2022-08-03T15:15:51.752Z,5.18
2022-08-03T15:18:21.281Z,3.58
2022-08-03T15:20:50.782Z,3.15
2022-08-03T15:23:19.477Z,3.47
2022-08-03T15:26:27.839Z,6.07
2022-08-03T15:28:37.741Z,4.90
2022-08-03T15:31:06.631Z,4.47
2022-08-03T15:33:35.231Z,3.60
2022-08-03T15:36:03.780Z,3.58
2022-08-03T15:38:31.635Z,4.93
2022-08-03T15:41:00.916Z,6.00
2022-08-03T15:43:29.147Z,6.88
2022-08-03T15:46:27.862Z,4.13
2022-08-03T15:48:46.964Z,5.22
2022-08-03T15:51:15.613Z,3.78
2022-08-03T15:53:43.545Z,3.95
2022-08-03T15:56:16.789Z,6.10
2022-08-03T15:59:09.395Z,5.57
2022-08-03T16:01:35.486Z,2.75
2022-08-03T16:04:03.472Z,6.85
2022-08-03T16:06:35.984Z,4.30
2022-08-03T16:09:24.105Z,4.40
2022-08-03T16:11:56.071Z,5.28
2022-08-03T16:14:34.391Z,4.32
2022-08-03T16:17:06.068Z,4.55
2022-08-03T16:19:34.284Z,9.25
2022-08-03T16:22:03.616Z,5.13
2022-08-03T16:24:32.040Z,6.15
2022-08-03T16:27:01.436Z,4.97
2022-08-03T16:29:29.777Z,5.13
2022-08-03T16:31:57.726Z,4.72
2022-08-03T16:34:26.055Z,5.43
2022-08-03T16:36:54.704Z,6.00
2022-08-03T16:39:22.718Z,7.28
2022-08-03T16:41:53.923Z,3.40
2022-08-03T16:44:32.117Z,5.13
2022-08-03T16:47:00.856Z,4.40
2022-08-03T16:49:53.151Z,4.57
2022-08-03T16:52:17.906Z,4.60
2022-08-03T16:54:50.719Z,4.63
2022-08-03T16:57:56.382Z,4.05
2022-08-03T17:00:33.009Z,4.75
2022-08-03T17:03:04.284Z,7.38
2022-08-03T17:05:43.837Z,5.50
2022-08-03T17:08:16.362Z,4.97
2022-08-03T17:10:54.023Z,4.43
2022-08-03T17:13:22.948Z,5.68
2022-08-03T17:16:01.239Z,4.40
2022-08-03T17:18:35.302Z,5.95
2022-08-03T17:21:06.048Z,3.97
2022-08-03T17:23:45.705Z,8.20
2022-08-03T17:26:21.541Z,5.18
2022-08-03T17:28:57.261Z,8.20
2022-08-03T17:31:31.725Z,5.70
2022-08-03T17:34:04.229Z,6.90
2022-08-03T17:37:02.219Z,5.57
2022-08-03T17:39:41.870Z,5.63
2022-08-03T17:42:31.301Z,5.70
2022-08-03T17:45:02.019Z,6.80
2022-08-03T17:47:41.885Z,6.70
2022-08-03T17:50:25.026Z,4.55
2022-08-03T17:53:23.623Z,6.28
2022-08-03T17:56:04.059Z,4.68
2022-08-03T17:58:52.415Z,7.50
2022-08-03T18:01:58.464Z,5.97
2022-08-03T18:04:34.506Z,5.63
2022-08-03T18:07:11.192Z,7.93
2022-08-03T18:10:04.806Z,4.97
2022-08-03T18:12:37.184Z,5.63
2022-08-03T18:15:07.778Z,6.40
2022-08-03T18:17:55.257Z,6.38
2022-08-03T18:20:34.813Z,5.95
2022-08-03T18:23:11.537Z,5.15
2022-08-03T18:25:58.235Z,9.18
2022-08-03T18:28:28.795Z,4.82
2022-08-03T18:30:57.708Z,4.50
2022-08-03T18:34:19.156Z,7.47
2022-08-03T18:36:21.633Z,4.55
2022-08-03T18:38:53.933Z,6.07
2022-08-03T18:41:32.180Z,4.55
2022-08-03T18:47:07.055Z,7.40
2022-08-03T18:49:43.380Z,4.53
2022-08-03T18:52:18.568Z,8.23
2022-08-03T18:55:02.588Z,6.93
2022-08-03T18:57:46.384Z,4.75
2022-08-03T19:00:17.110Z,4.03
2022-08-03T19:02:58.986Z,5.75
2022-08-03T19:05:56.368Z,6.00
2022-08-03T19:08:28.142Z,7.68
2022-08-03T19:11:02.205Z,7.15
2022-08-03T19:13:44.461Z,6.20
2022-08-03T19:16:25.617Z,6.45
2022-08-03T19:18:57.513Z,7.03
2022-08-03T19:21:26.175Z,4.18
2022-08-03T19:23:58.446Z,8.32
2022-08-03T19:26:30.906Z,5.18
2022-08-03T19:29:00.292Z,4.75
2022-08-03T19:31:30.763Z,5.82
2022-08-03T19:33:59.957Z,4.35
2022-08-03T19:36:29.637Z,8.85
2022-08-03T19:39:00.372Z,6.43
2022-08-03T19:41:41.738Z,8.52
2022-08-03T19:44:12.931Z,4.30
2022-08-03T19:46:53.726Z,5.15
2022-08-03T19:49:26.101Z,9.35
2022-08-03T19:52:16.129Z,6.85
2022-08-03T19:54:53.672Z,5.75
2022-08-03T19:57:25.304Z,7.40
2022-08-03T19:59:55.180Z,7.07
2022-08-03T20:02:26.733Z,5.47
2022-08-03T20:04:56.626Z,7.38
2022-08-03T20:07:25.912Z,5.75
2022-08-03T20:09:57.029Z,7.28
2022-08-03T20:12:26.425Z,6.28
2022-08-03T20:14:56.351Z,6.13
2022-08-03T20:17:54.616Z,6.80
2022-08-03T20:20:13.195Z,10.13
2022-08-03T20:22:46.260Z,7.15
2022-08-03T20:25:20.918Z,8.85
2022-08-03T20:28:06.947Z,9.48
2022-08-03T20:30:36.647Z,7.78
2022-08-03T20:33:05.608Z,6.13
2022-08-03T20:35:33.907Z,5.70
2022-08-03T20:38:03.061Z,9.00
2022-08-03T20:40:32.302Z,6.25
2022-08-03T20:43:01.460Z,6.28
2022-08-03T20:46:00.771Z,8.60
2022-08-03T20:48:21.992Z,6.18
2022-08-03T20:50:51.127Z,10.65
2022-08-03T20:53:57.065Z,6.72
2022-08-03T20:56:10.192Z,9.48
2022-08-03T20:58:41.650Z,11.30
2022-08-03T21:01:09.909Z,6.35
2022-08-03T21:06:29.882Z,5.65
2022-08-03T21:09:05.245Z,6.93
2022-08-03T21:11:41.762Z,6.72
2022-08-03T21:13:04.167Z,6.50
2022-08-03T21:13:13.183Z,6.47
2022-08-03T21:14:14.667Z,6.55
2022-08-03T21:16:45.782Z,9.65
2022-08-03T21:19:14.365Z,7.38
2022-08-03T21:21:45.753Z,6.45
2022-08-03T21:24:14.873Z,6.80
2022-08-03T21:26:48.701Z,6.35
2022-08-03T21:29:17.235Z,6.07
2022-08-03T21:31:45.249Z,4.30
2022-08-03T21:34:13.395Z,7.15
2022-08-03T21:36:41.327Z,5.50
2022-08-03T21:39:11.034Z,4.38
2022-08-03T21:41:40.555Z,5.70
2022-08-03T21:44:10.107Z,7.65
2022-08-03T21:46:41.043Z,6.13
2022-08-03T21:50:05.456Z,4.55
2022-08-03T21:52:06.164Z,5.47
2022-08-03T21:54:37.303Z,6.82
2022-08-03T21:57:07.153Z,7.75
2022-08-03T21:59:39.365Z,5.35
2022-08-03T22:02:22.448Z,6.28
2022-08-03T22:04:56.318Z,6.22
2022-08-03T22:07:26.558Z,6.63
2022-08-03T22:09:55.620Z,3.80
2022-08-03T22:12:25.112Z,3.80
2022-08-03T22:15:00.583Z,4.25
2022-08-03T22:17:55.332Z,4.07
2022-08-03T22:20:19.691Z,4.40
2022-08-03T22:22:53.533Z,5.05
2022-08-03T22:25:27.394Z,5.65
2022-08-03T22:27:55.453Z,4.65
2022-08-03T22:30:24.957Z,6.25
2022-08-03T22:32:56.389Z,10.57
2022-08-03T22:35:26.166Z,3.15
2022-08-03T22:37:55.737Z,5.68
2022-08-03T22:40:23.989Z,4.43
2022-08-03T22:42:53.002Z,5.13
2022-08-03T22:46:07.771Z,4.70
2022-08-03T22:48:12.374Z,3.47
2022-08-03T22:51:10.486Z,5.40
2022-08-03T22:53:40.797Z,4.25
2022-08-03T22:56:09.432Z,5.22
2022-08-03T22:58:39.187Z,5.60
2022-08-03T23:01:09.676Z,5.13
2022-08-03T23:04:01.092Z,4.57
2022-08-03T23:06:35.204Z,4.95
2022-08-03T23:09:05.679Z,6.95
2022-08-03T23:11:37.352Z,6.53
2022-08-03T23:14:12.260Z,6.50
2022-08-03T23:16:42.042Z,8.35
2022-08-03T23:19:17.191Z,8.88
2022-08-03T23:22:02.644Z,6.70
2022-08-03T23:24:34.537Z,7.63
2022-08-03T23:27:04.517Z,5.38
2022-08-03T23:29:35.447Z,6.07
2022-08-03T23:32:04.512Z,7.25
2022-08-03T23:34:52.247Z,8.30
2022-08-03T23:37:21.212Z,6.22
2022-08-03T23:39:50.142Z,4.88
2022-08-03T23:42:21.613Z,8.00
2022-08-03T23:44:55.672Z,5.13
2022-08-03T23:47:24.179Z,5.75
2022-08-03T23:50:13.662Z,6.38
2022-08-03T23:52:53.411Z,5.07
2022-08-03T23:55:29.510Z,7.38
2022-08-03T23:58:11.113Z,6.75
